sensor_id;sensor_type;location;lat;lon;timestamp;P1;durP1;ratioP1;P2;durP2;ratioP2
31091;SDS011;67728;53.122;12.776;2023-05-10T00:00:33;320.77;;;71.17;;
31091;SDS011;67728;53.122;12.776;2023-05-10T00:02:05;319.80;;;70.53;;
31091;SDS011;67728;53.122;12.776;2023-05-10T00:03:37;319.27;;;70.37;;
31091;SDS011;67728;53.122;12.776;2023-05-10T00:05:09;319.10;;;70.70;;
31091;SDS011;67728;53.122;12.776;2023-05-10T00:06:40;319.67;;;69.87;;
31091;SDS011;67728;53.122;12.776;2023-05-10T00:08:12;318.93;;;69.60;;
31091;SDS011;67728;53.122;12.776;2023-05-10T00:09:42;318.00;;;69.47;;
31091;SDS011;67728;53.122;12.776;2023-05-10T00:11:14;319.60;;;70.57;;
31091;SDS011;67728;53.122;12.776;2023-05-10T00:12:46;320.47;;;69.87;;
31091;SDS011;67728;53.122;12.776;2023-05-10T00:14:18;320.03;;;70.13;;
31091;SDS011;67728;53.122;12.776;2023-05-10T00:15:49;319.63;;;70.33;;
31091;SDS011;67728;53.122;12.776;2023-05-10T00:17:20;318.47;;;69.93;;
31091;SDS011;67728;53.122;12.776;2023-05-10T00:18:52;319.50;;;69.40;;
31091;SDS011;67728;53.122;12.776;2023-05-10T00:20:25;318.67;;;68.60;;
31091;SDS011;67728;53.122;12.776;2023-05-10T00:21:56;320.37;;;69.93;;
31091;SDS011;67728;53.122;12.776;2023-05-10T00:23:27;320.10;;;69.80;;
31091;SDS011;67728;53.122;12.776;2023-05-10T00:24:59;318.77;;;69.27;;
31091;SDS011;67728;53.122;12.776;2023-05-10T00:26:31;320.43;;;69.60;;
31091;SDS011;67728;53.122;12.776;2023-05-10T00:28:02;317.53;;;69.37;;
31091;SDS011;67728;53.122;12.776;2023-05-10T00:29:33;318.87;;;69.07;;
31091;SDS011;67728;53.122;12.776;2023-05-10T00:31:05;318.77;;;69.93;;
31091;SDS011;67728;53.122;12.776;2023-05-10T00:32:37;318.73;;;69.67;;
31091;SDS011;67728;53.122;12.776;2023-05-10T00:34:09;318.73;;;70.10;;
31091;SDS011;67728;53.122;12.776;2023-05-10T00:35:42;318.70;;;69.03;;
31091;SDS011;67728;53.122;12.776;2023-05-10T00:37:13;317.67;;;69.27;;
31091;SDS011;67728;53.122;12.776;2023-05-10T00:38:45;318.83;;;69.17;;
31091;SDS011;67728;53.122;12.776;2023-05-10T00:40:16;316.90;;;69.57;;
31091;SDS011;67728;53.122;12.776;2023-05-10T00:41:47;318.43;;;69.33;;
31091;SDS011;67728;53.122;12.776;2023-05-10T00:43:19;317.80;;;68.13;;
31091;SDS011;67728;53.122;12.776;2023-05-10T00:44:50;317.77;;;68.87;;
31091;SDS011;67728;53.122;12.776;2023-05-10T00:46:22;317.10;;;68.37;;
31091;SDS011;67728;53.122;12.776;2023-05-10T00:47:53;316.70;;;68.57;;
31091;SDS011;67728;53.122;12.776;2023-05-10T00:49:26;317.97;;;69.07;;
31091;SDS011;67728;53.122;12.776;2023-05-10T00:50:58;317.30;;;68.57;;
31091;SDS011;67728;53.122;12.776;2023-05-10T00:52:30;317.33;;;68.53;;
31091;SDS011;67728;53.122;12.776;2023-05-10T00:54:00;317.63;;;68.83;;
31091;SDS011;67728;53.122;12.776;2023-05-10T00:55:33;317.13;;;68.10;;
31091;SDS011;67728;53.122;12.776;2023-05-10T00:57:04;316.03;;;67.07;;
31091;SDS011;67728;53.122;12.776;2023-05-10T00:58:36;316.57;;;68.10;;
31091;SDS011;67728;53.122;12.776;2023-05-10T01:00:08;314.70;;;67.07;;
31091;SDS011;67728;53.122;12.776;2023-05-10T01:01:41;318.60;;;68.93;;
31091;SDS011;67728;53.122;12.776;2023-05-10T01:03:12;316.40;;;67.53;;
31091;SDS011;67728;53.122;12.776;2023-05-10T01:04:44;317.23;;;67.80;;
31091;SDS011;67728;53.122;12.776;2023-05-10T01:06:17;316.50;;;67.80;;
31091;SDS011;67728;53.122;12.776;2023-05-10T01:07:49;314.60;;;66.90;;
31091;SDS011;67728;53.122;12.776;2023-05-10T01:09:20;317.20;;;67.13;;
31091;SDS011;67728;53.122;12.776;2023-05-10T01:10:51;315.60;;;67.13;;
31091;SDS011;67728;53.122;12.776;2023-05-10T01:12:23;321.77;;;69.23;;
31091;SDS011;67728;53.122;12.776;2023-05-10T01:13:56;316.87;;;69.47;;
31091;SDS011;67728;53.122;12.776;2023-05-10T01:15:28;317.17;;;69.70;;
31091;SDS011;67728;53.122;12.776;2023-05-10T01:17:01;315.57;;;67.50;;
31091;SDS011;67728;53.122;12.776;2023-05-10T01:18:33;316.10;;;67.97;;
31091;SDS011;67728;53.122;12.776;2023-05-10T01:20:07;314.60;;;67.70;;
31091;SDS011;67728;53.122;12.776;2023-05-10T01:21:45;317.77;;;70.20;;
31091;SDS011;67728;53.122;12.776;2023-05-10T01:23:41;316.13;;;69.40;;
31091;SDS011;67728;53.122;12.776;2023-05-10T01:25:37;316.63;;;66.87;;
31091;SDS011;67728;53.122;12.776;2023-05-10T01:29:44;316.20;;;67.77;;
31091;SDS011;67728;53.122;12.776;2023-05-10T01:31:40;315.73;;;69.70;;
31091;SDS011;67728;53.122;12.776;2023-05-10T01:33:37;314.17;;;66.53;;
31091;SDS011;67728;53.122;12.776;2023-05-10T01:35:15;315.03;;;67.30;;
31091;SDS011;67728;53.122;12.776;2023-05-10T01:36:51;313.70;;;67.03;;
31091;SDS011;67728;53.122;12.776;2023-05-10T01:38:29;315.43;;;68.47;;
31091;SDS011;67728;53.122;12.776;2023-05-10T01:40:11;316.50;;;68.60;;
31091;SDS011;67728;53.122;12.776;2023-05-10T01:41:51;315.87;;;67.80;;
31091;SDS011;67728;53.122;12.776;2023-05-10T01:43:26;315.60;;;67.17;;
31091;SDS011;67728;53.122;12.776;2023-05-10T01:45:02;316.20;;;67.30;;
31091;SDS011;67728;53.122;12.776;2023-05-10T01:46:42;313.80;;;67.33;;
31091;SDS011;67728;53.122;12.776;2023-05-10T01:48:14;313.87;;;66.93;;
31091;SDS011;67728;53.122;12.776;2023-05-10T01:49:49;314.47;;;67.57;;
31091;SDS011;67728;53.122;12.776;2023-05-10T01:51:21;314.47;;;67.17;;
31091;SDS011;67728;53.122;12.776;2023-05-10T01:52:56;316.47;;;69.30;;
31091;SDS011;67728;53.122;12.776;2023-05-10T01:54:30;314.87;;;67.37;;
31091;SDS011;67728;53.122;12.776;2023-05-10T01:56:04;312.17;;;66.97;;
31091;SDS011;67728;53.122;12.776;2023-05-10T01:57:38;314.23;;;66.73;;
31091;SDS011;67728;53.122;12.776;2023-05-10T01:59:15;314.77;;;69.10;;
31091;SDS011;67728;53.122;12.776;2023-05-10T02:00:49;314.63;;;69.10;;
31091;SDS011;67728;53.122;12.776;2023-05-10T02:02:23;313.60;;;66.50;;
31091;SDS011;67728;53.122;12.776;2023-05-10T02:03:56;313.80;;;66.00;;
31091;SDS011;67728;53.122;12.776;2023-05-10T02:05:31;314.83;;;67.90;;
31091;SDS011;67728;53.122;12.776;2023-05-10T02:07:04;311.67;;;66.90;;
31091;SDS011;67728;53.122;12.776;2023-05-10T02:08:36;315.03;;;68.40;;
31091;SDS011;67728;53.122;12.776;2023-05-10T02:10:08;311.37;;;66.10;;
31091;SDS011;67728;53.122;12.776;2023-05-10T02:11:42;312.97;;;66.13;;
31091;SDS011;67728;53.122;12.776;2023-05-10T02:13:14;312.30;;;64.93;;
31091;SDS011;67728;53.122;12.776;2023-05-10T02:14:47;312.90;;;65.90;;
31091;SDS011;67728;53.122;12.776;2023-05-10T02:16:19;312.07;;;65.40;;
31091;SDS011;67728;53.122;12.776;2023-05-10T02:17:55;311.97;;;66.27;;
31091;SDS011;67728;53.122;12.776;2023-05-10T02:19:27;313.50;;;65.77;;
31091;SDS011;67728;53.122;12.776;2023-05-10T02:21:01;313.57;;;66.70;;
31091;SDS011;67728;53.122;12.776;2023-05-10T02:22:34;312.33;;;65.27;;
31091;SDS011;67728;53.122;12.776;2023-05-10T02:24:08;312.80;;;66.87;;
31091;SDS011;67728;53.122;12.776;2023-05-10T02:25:42;310.83;;;65.63;;
31091;SDS011;67728;53.122;12.776;2023-05-10T02:27:15;312.17;;;64.57;;
31091;SDS011;67728;53.122;12.776;2023-05-10T02:28:48;311.60;;;65.50;;
31091;SDS011;67728;53.122;12.776;2023-05-10T02:30:21;312.77;;;66.03;;
31091;SDS011;67728;53.122;12.776;2023-05-10T02:31:54;312.60;;;65.90;;
31091;SDS011;67728;53.122;12.776;2023-05-10T02:33:27;311.70;;;65.23;;
31091;SDS011;67728;53.122;12.776;2023-05-10T02:35:01;312.47;;;64.97;;
31091;SDS011;67728;53.122;12.776;2023-05-10T02:36:34;311.80;;;65.20;;
31091;SDS011;67728;53.122;12.776;2023-05-10T02:38:07;311.37;;;65.67;;
31091;SDS011;67728;53.122;12.776;2023-05-10T02:39:42;311.80;;;65.37;;
31091;SDS011;67728;53.122;12.776;2023-05-10T02:41:15;311.90;;;65.80;;
31091;SDS011;67728;53.122;12.776;2023-05-10T02:42:47;312.20;;;66.23;;
31091;SDS011;67728;53.122;12.776;2023-05-10T02:44:20;311.63;;;66.13;;
31091;SDS011;67728;53.122;12.776;2023-05-10T02:45:53;310.53;;;64.70;;
31091;SDS011;67728;53.122;12.776;2023-05-10T02:47:25;312.07;;;64.47;;
31091;SDS011;67728;53.122;12.776;2023-05-10T02:48:57;311.17;;;65.57;;
31091;SDS011;67728;53.122;12.776;2023-05-10T02:50:29;311.53;;;64.27;;
31091;SDS011;67728;53.122;12.776;2023-05-10T02:52:05;311.60;;;64.57;;
31091;SDS011;67728;53.122;12.776;2023-05-10T02:53:40;311.13;;;64.63;;
31091;SDS011;67728;53.122;12.776;2023-05-10T02:55:15;311.03;;;64.20;;
31091;SDS011;67728;53.122;12.776;2023-05-10T02:56:51;311.37;;;63.67;;
31091;SDS011;67728;53.122;12.776;2023-05-10T02:58:26;311.77;;;63.77;;
31091;SDS011;67728;53.122;12.776;2023-05-10T02:59:58;309.20;;;63.53;;
31091;SDS011;67728;53.122;12.776;2023-05-10T03:01:30;308.23;;;63.00;;
31091;SDS011;67728;53.122;12.776;2023-05-10T03:03:01;309.70;;;63.17;;
31091;SDS011;67728;53.122;12.776;2023-05-10T03:04:32;310.70;;;63.53;;
31091;SDS011;67728;53.122;12.776;2023-05-10T03:06:04;308.67;;;62.27;;
31091;SDS011;67728;53.122;12.776;2023-05-10T03:07:37;315.63;;;64.33;;
31091;SDS011;67728;53.122;12.776;2023-05-10T03:09:09;328.73;;;67.37;;
31091;SDS011;67728;53.122;12.776;2023-05-10T03:10:45;352.90;;;70.23;;
31091;SDS011;67728;53.122;12.776;2023-05-10T03:12:27;361.67;;;73.37;;
31091;SDS011;67728;53.122;12.776;2023-05-10T03:14:07;356.97;;;72.43;;
31091;SDS011;67728;53.122;12.776;2023-05-10T03:15:46;321.37;;;65.37;;
31091;SDS011;67728;53.122;12.776;2023-05-10T03:17:25;307.17;;;61.80;;
31091;SDS011;67728;53.122;12.776;2023-05-10T03:19:03;308.17;;;62.13;;
31091;SDS011;67728;53.122;12.776;2023-05-10T03:20:43;307.47;;;62.57;;
31091;SDS011;67728;53.122;12.776;2023-05-10T03:22:24;308.80;;;61.90;;
31091;SDS011;67728;53.122;12.776;2023-05-10T03:24:03;309.07;;;61.93;;
31091;SDS011;67728;53.122;12.776;2023-05-10T03:25:38;307.50;;;61.80;;
31091;SDS011;67728;53.122;12.776;2023-05-10T03:27:13;308.07;;;61.77;;
31091;SDS011;67728;53.122;12.776;2023-05-10T03:28:46;306.80;;;61.23;;
31091;SDS011;67728;53.122;12.776;2023-05-10T03:30:19;307.47;;;61.40;;
31091;SDS011;67728;53.122;12.776;2023-05-10T03:31:51;304.53;;;61.30;;
31091;SDS011;67728;53.122;12.776;2023-05-10T03:33:22;302.97;;;61.23;;
31091;SDS011;67728;53.122;12.776;2023-05-10T03:34:53;303.30;;;61.47;;
31091;SDS011;67728;53.122;12.776;2023-05-10T03:36:24;308.87;;;62.07;;
31091;SDS011;67728;53.122;12.776;2023-05-10T03:37:56;308.63;;;62.67;;
31091;SDS011;67728;53.122;12.776;2023-05-10T03:39:29;307.93;;;61.97;;
31091;SDS011;67728;53.122;12.776;2023-05-10T03:41:01;310.07;;;62.53;;
31091;SDS011;67728;53.122;12.776;2023-05-10T03:42:32;310.47;;;63.00;;
31091;SDS011;67728;53.122;12.776;2023-05-10T03:44:04;308.37;;;61.70;;
31091;SDS011;67728;53.122;12.776;2023-05-10T03:45:35;312.97;;;62.83;;
31091;SDS011;67728;53.122;12.776;2023-05-10T03:47:07;309.77;;;62.67;;
31091;SDS011;67728;53.122;12.776;2023-05-10T03:48:37;309.93;;;63.07;;
31091;SDS011;67728;53.122;12.776;2023-05-10T03:50:09;309.90;;;63.00;;
31091;SDS011;67728;53.122;12.776;2023-05-10T03:51:40;309.97;;;62.70;;
31091;SDS011;67728;53.122;12.776;2023-05-10T03:53:12;308.70;;;62.47;;
31091;SDS011;67728;53.122;12.776;2023-05-10T03:54:45;309.60;;;62.93;;
31091;SDS011;67728;53.122;12.776;2023-05-10T03:56:15;308.93;;;62.83;;
31091;SDS011;67728;53.122;12.776;2023-05-10T03:57:47;302.27;;;63.43;;
31091;SDS011;67728;53.122;12.776;2023-05-10T03:59:19;309.03;;;63.53;;
31091;SDS011;67728;53.122;12.776;2023-05-10T04:00:50;289.13;;;60.23;;
31091;SDS011;67728;53.122;12.776;2023-05-10T04:02:22;308.13;;;61.10;;
31091;SDS011;67728;53.122;12.776;2023-05-10T04:03:53;296.37;;;61.23;;
31091;SDS011;67728;53.122;12.776;2023-05-10T04:05:24;312.33;;;62.33;;
31091;SDS011;67728;53.122;12.776;2023-05-10T04:06:56;312.20;;;62.30;;
31091;SDS011;67728;53.122;12.776;2023-05-10T04:08:26;315.30;;;63.47;;
31091;SDS011;67728;53.122;12.776;2023-05-10T04:09:59;310.53;;;62.03;;
31091;SDS011;67728;53.122;12.776;2023-05-10T04:11:31;311.50;;;62.27;;
31091;SDS011;67728;53.122;12.776;2023-05-10T04:13:03;309.57;;;62.40;;
31091;SDS011;67728;53.122;12.776;2023-05-10T04:14:34;310.87;;;63.07;;
31091;SDS011;67728;53.122;12.776;2023-05-10T04:16:06;309.50;;;62.07;;
31091;SDS011;67728;53.122;12.776;2023-05-10T04:17:37;316.20;;;63.50;;
31091;SDS011;67728;53.122;12.776;2023-05-10T04:19:09;309.50;;;62.73;;
31091;SDS011;67728;53.122;12.776;2023-05-10T04:20:41;309.97;;;63.03;;
31091;SDS011;67728;53.122;12.776;2023-05-10T04:22:12;308.90;;;62.73;;
31091;SDS011;67728;53.122;12.776;2023-05-10T04:23:44;310.30;;;63.33;;
31091;SDS011;67728;53.122;12.776;2023-05-10T04:25:16;304.53;;;62.07;;
31091;SDS011;67728;53.122;12.776;2023-05-10T04:26:48;289.73;;;61.87;;
31091;SDS011;67728;53.122;12.776;2023-05-10T04:28:20;314.10;;;63.03;;
31091;SDS011;67728;53.122;12.776;2023-05-10T04:29:52;313.60;;;63.60;;
31091;SDS011;67728;53.122;12.776;2023-05-10T04:31:22;310.83;;;62.60;;
31091;SDS011;67728;53.122;12.776;2023-05-10T04:32:54;312.40;;;63.43;;
31091;SDS011;67728;53.122;12.776;2023-05-10T04:34:26;311.10;;;63.40;;
31091;SDS011;67728;53.122;12.776;2023-05-10T04:35:57;311.67;;;61.67;;
31091;SDS011;67728;53.122;12.776;2023-05-10T04:37:29;311.93;;;62.17;;
31091;SDS011;67728;53.122;12.776;2023-05-10T04:39:01;312.40;;;61.63;;
31091;SDS011;67728;53.122;12.776;2023-05-10T04:40:35;310.33;;;61.87;;
31091;SDS011;67728;53.122;12.776;2023-05-10T04:42:07;310.70;;;62.10;;
31091;SDS011;67728;53.122;12.776;2023-05-10T04:43:38;311.83;;;63.03;;
31091;SDS011;67728;53.122;12.776;2023-05-10T04:45:10;308.00;;;62.37;;
31091;SDS011;67728;53.122;12.776;2023-05-10T04:46:42;308.27;;;62.10;;
31091;SDS011;67728;53.122;12.776;2023-05-10T04:48:13;309.60;;;62.13;;
31091;SDS011;67728;53.122;12.776;2023-05-10T04:49:44;309.60;;;61.33;;
31091;SDS011;67728;53.122;12.776;2023-05-10T04:51:16;309.33;;;62.00;;
31091;SDS011;67728;53.122;12.776;2023-05-10T04:52:47;311.90;;;63.07;;
31091;SDS011;67728;53.122;12.776;2023-05-10T04:54:19;310.33;;;64.03;;
31091;SDS011;67728;53.122;12.776;2023-05-10T04:55:52;311.60;;;62.43;;
31091;SDS011;67728;53.122;12.776;2023-05-10T04:57:23;309.13;;;62.63;;
31091;SDS011;67728;53.122;12.776;2023-05-10T04:58:55;310.07;;;62.70;;
31091;SDS011;67728;53.122;12.776;2023-05-10T05:00:27;312.63;;;64.80;;
31091;SDS011;67728;53.122;12.776;2023-05-10T05:01:58;311.97;;;65.50;;
31091;SDS011;67728;53.122;12.776;2023-05-10T05:03:30;312.70;;;65.57;;
31091;SDS011;67728;53.122;12.776;2023-05-10T05:05:02;311.03;;;64.13;;
31091;SDS011;67728;53.122;12.776;2023-05-10T05:06:34;311.17;;;65.60;;
31091;SDS011;67728;53.122;12.776;2023-05-10T05:08:06;310.87;;;65.00;;
31091;SDS011;67728;53.122;12.776;2023-05-10T05:09:37;311.90;;;66.90;;
31091;SDS011;67728;53.122;12.776;2023-05-10T05:11:11;311.23;;;65.40;;
31091;SDS011;67728;53.122;12.776;2023-05-10T05:12:42;310.83;;;64.27;;
31091;SDS011;67728;53.122;12.776;2023-05-10T05:14:14;296.03;;;63.27;;
31091;SDS011;67728;53.122;12.776;2023-05-10T05:15:45;311.87;;;63.77;;
31091;SDS011;67728;53.122;12.776;2023-05-10T05:17:17;313.30;;;65.20;;
31091;SDS011;67728;53.122;12.776;2023-05-10T05:18:49;316.57;;;65.60;;
31091;SDS011;67728;53.122;12.776;2023-05-10T05:20:20;317.27;;;64.47;;
31091;SDS011;67728;53.122;12.776;2023-05-10T05:21:52;316.13;;;66.13;;
31091;SDS011;67728;53.122;12.776;2023-05-10T05:23:23;316.70;;;65.40;;
31091;SDS011;67728;53.122;12.776;2023-05-10T05:24:56;318.13;;;65.67;;
31091;SDS011;67728;53.122;12.776;2023-05-10T05:26:29;310.73;;;67.97;;
31091;SDS011;67728;53.122;12.776;2023-05-10T05:28:01;315.97;;;67.23;;
31091;SDS011;67728;53.122;12.776;2023-05-10T05:29:33;314.17;;;65.63;;
31091;SDS011;67728;53.122;12.776;2023-05-10T05:31:05;319.27;;;68.00;;
31091;SDS011;67728;53.122;12.776;2023-05-10T05:32:38;317.27;;;66.73;;
31091;SDS011;67728;53.122;12.776;2023-05-10T05:34:10;316.53;;;66.80;;
31091;SDS011;67728;53.122;12.776;2023-05-10T05:35:41;315.33;;;67.20;;
31091;SDS011;67728;53.122;12.776;2023-05-10T05:37:18;315.67;;;67.43;;
31091;SDS011;67728;53.122;12.776;2023-05-10T05:38:51;319.73;;;68.00;;
31091;SDS011;67728;53.122;12.776;2023-05-10T05:40:22;318.33;;;67.83;;
31091;SDS011;67728;53.122;12.776;2023-05-10T05:41:56;314.87;;;66.57;;
31091;SDS011;67728;53.122;12.776;2023-05-10T05:43:28;317.93;;;68.63;;
31091;SDS011;67728;53.122;12.776;2023-05-10T05:45:00;318.80;;;68.63;;
31091;SDS011;67728;53.122;12.776;2023-05-10T05:46:31;319.80;;;68.80;;
31091;SDS011;67728;53.122;12.776;2023-05-10T05:48:03;317.83;;;69.20;;
31091;SDS011;67728;53.122;12.776;2023-05-10T05:49:35;318.23;;;69.03;;
31091;SDS011;67728;53.122;12.776;2023-05-10T05:51:07;319.13;;;69.33;;
31091;SDS011;67728;53.122;12.776;2023-05-10T05:52:39;317.33;;;69.13;;
31091;SDS011;67728;53.122;12.776;2023-05-10T05:54:10;322.60;;;70.73;;
31091;SDS011;67728;53.122;12.776;2023-05-10T05:55:50;319.20;;;70.67;;
31091;SDS011;67728;53.122;12.776;2023-05-10T05:57:22;320.30;;;71.30;;
31091;SDS011;67728;53.122;12.776;2023-05-10T05:58:54;321.30;;;70.40;;
31091;SDS011;67728;53.122;12.776;2023-05-10T06:00:26;318.43;;;69.80;;
31091;SDS011;67728;53.122;12.776;2023-05-10T06:01:57;318.70;;;71.33;;
31091;SDS011;67728;53.122;12.776;2023-05-10T06:03:30;319.57;;;71.40;;
31091;SDS011;67728;53.122;12.776;2023-05-10T06:05:02;318.70;;;70.50;;
31091;SDS011;67728;53.122;12.776;2023-05-10T06:06:34;320.57;;;71.33;;
31091;SDS011;67728;53.122;12.776;2023-05-10T06:08:06;319.03;;;70.33;;
31091;SDS011;67728;53.122;12.776;2023-05-10T06:09:37;319.00;;;70.63;;
31091;SDS011;67728;53.122;12.776;2023-05-10T06:11:09;320.23;;;71.53;;
31091;SDS011;67728;53.122;12.776;2023-05-10T06:12:42;319.33;;;71.27;;
31091;SDS011;67728;53.122;12.776;2023-05-10T06:14:13;320.03;;;73.97;;
31091;SDS011;67728;53.122;12.776;2023-05-10T06:15:45;319.03;;;73.00;;
31091;SDS011;67728;53.122;12.776;2023-05-10T06:17:17;320.70;;;73.57;;
31091;SDS011;67728;53.122;12.776;2023-05-10T06:18:48;324.40;;;74.20;;
31091;SDS011;67728;53.122;12.776;2023-05-10T06:20:20;323.27;;;75.13;;
31091;SDS011;67728;53.122;12.776;2023-05-10T06:21:51;322.53;;;76.23;;
31091;SDS011;67728;53.122;12.776;2023-05-10T06:23:23;324.60;;;73.57;;
31091;SDS011;67728;53.122;12.776;2023-05-10T06:24:55;319.17;;;72.03;;
31091;SDS011;67728;53.122;12.776;2023-05-10T06:26:27;322.30;;;73.80;;
31091;SDS011;67728;53.122;12.776;2023-05-10T06:28:00;319.40;;;72.70;;
31091;SDS011;67728;53.122;12.776;2023-05-10T06:29:32;317.87;;;70.77;;
31091;SDS011;67728;53.122;12.776;2023-05-10T06:31:04;320.63;;;72.70;;
31091;SDS011;67728;53.122;12.776;2023-05-10T06:32:35;321.17;;;75.83;;
31091;SDS011;67728;53.122;12.776;2023-05-10T06:34:07;321.67;;;76.57;;
31091;SDS011;67728;53.122;12.776;2023-05-10T06:35:39;322.40;;;76.27;;
31091;SDS011;67728;53.122;12.776;2023-05-10T06:37:10;323.27;;;77.23;;
31091;SDS011;67728;53.122;12.776;2023-05-10T06:38:42;322.40;;;76.87;;
31091;SDS011;67728;53.122;12.776;2023-05-10T06:40:14;319.53;;;75.83;;
31091;SDS011;67728;53.122;12.776;2023-05-10T06:41:45;321.77;;;77.77;;
31091;SDS011;67728;53.122;12.776;2023-05-10T06:43:19;322.93;;;79.07;;
31091;SDS011;67728;53.122;12.776;2023-05-10T06:44:50;323.23;;;78.17;;
31091;SDS011;67728;53.122;12.776;2023-05-10T06:46:22;321.87;;;76.93;;
31091;SDS011;67728;53.122;12.776;2023-05-10T06:47:54;322.93;;;78.03;;
31091;SDS011;67728;53.122;12.776;2023-05-10T06:49:25;321.97;;;76.90;;
31091;SDS011;67728;53.122;12.776;2023-05-10T06:50:57;321.23;;;77.47;;
31091;SDS011;67728;53.122;12.776;2023-05-10T06:52:29;323.93;;;78.87;;
31091;SDS011;67728;53.122;12.776;2023-05-10T06:54:00;320.50;;;78.37;;
31091;SDS011;67728;53.122;12.776;2023-05-10T06:55:33;323.33;;;79.53;;
31091;SDS011;67728;53.122;12.776;2023-05-10T06:57:04;321.60;;;78.87;;
31091;SDS011;67728;53.122;12.776;2023-05-10T06:58:37;341.17;;;84.73;;
31091;SDS011;67728;53.122;12.776;2023-05-10T07:00:09;323.60;;;82.00;;
31091;SDS011;67728;53.122;12.776;2023-05-10T07:01:41;322.23;;;82.00;;
31091;SDS011;67728;53.122;12.776;2023-05-10T07:03:13;322.47;;;83.47;;
31091;SDS011;67728;53.122;12.776;2023-05-10T07:04:46;322.23;;;83.10;;
31091;SDS011;67728;53.122;12.776;2023-05-10T07:06:18;324.87;;;85.97;;
31091;SDS011;67728;53.122;12.776;2023-05-10T07:07:50;323.03;;;85.37;;
31091;SDS011;67728;53.122;12.776;2023-05-10T07:09:21;326.83;;;93.90;;
31091;SDS011;67728;53.122;12.776;2023-05-10T07:10:58;326.27;;;95.47;;
31091;SDS011;67728;53.122;12.776;2023-05-10T07:12:31;333.50;;;97.77;;
31091;SDS011;67728;53.122;12.776;2023-05-10T07:14:04;328.27;;;92.13;;
31091;SDS011;67728;53.122;12.776;2023-05-10T07:15:35;325.80;;;89.53;;
31091;SDS011;67728;53.122;12.776;2023-05-10T07:17:07;325.63;;;95.65;;
31091;SDS011;67728;53.122;12.776;2023-05-10T07:18:39;326.98;;;94.30;;
31091;SDS011;67728;53.122;12.776;2023-05-10T07:20:10;325.50;;;92.17;;
31091;SDS011;67728;53.122;12.776;2023-05-10T07:21:43;326.48;;;93.95;;
31091;SDS011;67728;53.122;12.776;2023-05-10T07:23:14;327.70;;;97.60;;
31091;SDS011;67728;53.122;12.776;2023-05-10T07:24:47;329.70;;;95.95;;
31091;SDS011;67728;53.122;12.776;2023-05-10T07:26:19;327.45;;;95.60;;
31091;SDS011;67728;53.122;12.776;2023-05-10T07:27:51;325.25;;;94.85;;
31091;SDS011;67728;53.122;12.776;2023-05-10T07:29:24;327.60;;;98.65;;
31091;SDS011;67728;53.122;12.776;2023-05-10T07:30:55;328.15;;;98.65;;
31091;SDS011;67728;53.122;12.776;2023-05-10T07:32:28;327.42;;;100.22;;
31091;SDS011;67728;53.122;12.776;2023-05-10T07:34:00;325.75;;;97.03;;
31091;SDS011;67728;53.122;12.776;2023-05-10T07:35:32;328.70;;;102.22;;
31091;SDS011;67728;53.122;12.776;2023-05-10T07:37:03;329.05;;;103.60;;
31091;SDS011;67728;53.122;12.776;2023-05-10T07:38:36;328.63;;;101.40;;
31091;SDS011;67728;53.122;12.776;2023-05-10T07:40:08;327.60;;;101.45;;
31091;SDS011;67728;53.122;12.776;2023-05-10T07:41:40;330.00;;;105.00;;
31091;SDS011;67728;53.122;12.776;2023-05-10T07:43:12;335.92;;;108.13;;
31091;SDS011;67728;53.122;12.776;2023-05-10T07:44:45;361.40;;;111.15;;
31091;SDS011;67728;53.122;12.776;2023-05-10T07:46:17;327.70;;;103.00;;
31091;SDS011;67728;53.122;12.776;2023-05-10T07:47:49;332.52;;;106.25;;
31091;SDS011;67728;53.122;12.776;2023-05-10T07:49:21;328.60;;;102.88;;
31091;SDS011;67728;53.122;12.776;2023-05-10T07:50:54;329.38;;;106.13;;
31091;SDS011;67728;53.122;12.776;2023-05-10T07:52:25;326.75;;;102.95;;
31091;SDS011;67728;53.122;12.776;2023-05-10T07:53:57;327.90;;;103.28;;
31091;SDS011;67728;53.122;12.776;2023-05-10T07:55:29;329.10;;;106.63;;
31091;SDS011;67728;53.122;12.776;2023-05-10T07:57:01;331.23;;;102.40;;
31091;SDS011;67728;53.122;12.776;2023-05-10T07:58:32;330.77;;;105.53;;
31091;SDS011;67728;53.122;12.776;2023-05-10T08:00:06;328.27;;;102.88;;
31091;SDS011;67728;53.122;12.776;2023-05-10T08:01:38;330.00;;;106.45;;
31091;SDS011;67728;53.122;12.776;2023-05-10T08:03:10;330.73;;;107.90;;
31091;SDS011;67728;53.122;12.776;2023-05-10T08:04:41;328.77;;;105.65;;
31091;SDS011;67728;53.122;12.776;2023-05-10T08:06:13;327.45;;;103.75;;
31091;SDS011;67728;53.122;12.776;2023-05-10T08:07:45;328.23;;;106.93;;
31091;SDS011;67728;53.122;12.776;2023-05-10T08:09:17;329.67;;;106.18;;
31091;SDS011;67728;53.122;12.776;2023-05-10T08:10:53;327.33;;;104.97;;
31091;SDS011;67728;53.122;12.776;2023-05-10T08:12:25;330.33;;;108.82;;
31091;SDS011;67728;53.122;12.776;2023-05-10T08:13:56;328.55;;;106.85;;
31091;SDS011;67728;53.122;12.776;2023-05-10T08:15:29;330.85;;;108.95;;
31091;SDS011;67728;53.122;12.776;2023-05-10T08:17:01;332.13;;;111.63;;
31091;SDS011;67728;53.122;12.776;2023-05-10T08:18:33;331.67;;;113.75;;
31091;SDS011;67728;53.122;12.776;2023-05-10T08:20:05;328.95;;;111.30;;
31091;SDS011;67728;53.122;12.776;2023-05-10T08:21:37;329.98;;;111.30;;
31091;SDS011;67728;53.122;12.776;2023-05-10T08:23:11;332.95;;;113.60;;
31091;SDS011;67728;53.122;12.776;2023-05-10T08:24:44;332.45;;;111.68;;
31091;SDS011;67728;53.122;12.776;2023-05-10T08:26:16;331.13;;;114.85;;
31091;SDS011;67728;53.122;12.776;2023-05-10T08:27:47;331.73;;;115.07;;
31091;SDS011;67728;53.122;12.776;2023-05-10T08:29:19;331.35;;;115.45;;
31091;SDS011;67728;53.122;12.776;2023-05-10T08:30:52;330.30;;;112.88;;
31091;SDS011;67728;53.122;12.776;2023-05-10T08:32:23;334.80;;;113.50;;
31091;SDS011;67728;53.122;12.776;2023-05-10T08:33:56;328.65;;;112.40;;
31091;SDS011;67728;53.122;12.776;2023-05-10T08:35:27;333.52;;;114.78;;
31091;SDS011;67728;53.122;12.776;2023-05-10T08:36:59;329.65;;;114.20;;
31091;SDS011;67728;53.122;12.776;2023-05-10T08:38:30;330.60;;;114.57;;
31091;SDS011;67728;53.122;12.776;2023-05-10T08:40:02;330.52;;;115.15;;
31091;SDS011;67728;53.122;12.776;2023-05-10T08:41:34;330.58;;;116.40;;
31091;SDS011;67728;53.122;12.776;2023-05-10T08:43:10;332.80;;;119.82;;
31091;SDS011;67728;53.122;12.776;2023-05-10T08:44:45;328.77;;;112.80;;
31091;SDS011;67728;53.122;12.776;2023-05-10T08:46:22;327.48;;;112.22;;
31091;SDS011;67728;53.122;12.776;2023-05-10T08:47:54;328.75;;;112.53;;